Time;durP1;ratioP1;P1;durP2;ratioP2;P2;SDS_P1;SDS_P2;PMS_P1;PMS_P2;Temp;Humidity;BMP_temperature;BMP_pressure;BME280_temperature;BME280_humidity;BME280_pressure;Samples;Min_cycle;Max_cycle;Signal;HPM_P1;HPM_P2
2022/01/22 00:00:35;;;;;;;;;;;5.00;63.10;;;;;;5077262;28;19905;-66
2022/01/22 00:03:02;;;;;;;;;;;5.00;63.30;;;;;;5077217;28;20333;-67
2022/01/22 00:05:27;;;;;;;;;;;5.00;63.40;;;;;;5059178;28;20292;-66
2022/01/22 00:07:53;;;;;;;;;;;5.00;63.50;;;;;;5077040;28;19988;-68
2022/01/22 00:10:22;;;;;;;;;;;4.90;63.50;;;;;;5076980;28;19930;-66
2022/01/22 00:15:18;;;;;;;;;;;4.90;63.80;;;;;;5076913;28;19908;-66
2022/01/22 00:17:45;;;;;;;;;;;4.90;63.80;;;;;;5076941;28;19908;-66
2022/01/22 00:20:12;;;;;;;;;;;4.90;63.80;;;;;;5092233;28;19927;-65
2022/01/22 00:22:38;;;;;;;;;;;4.90;63.90;;;;;;5076579;28;19911;-66
2022/01/22 00:25:08;;;;;;;;;;;4.90;63.90;;;;;;5058808;28;19904;-66
2022/01/22 00:27:35;;;;;;;;;;;4.90;63.90;;;;;;5058670;28;20332;-66
2022/01/22 00:30:00;;;;;;;;;;;5.00;63.90;;;;;;5076991;28;19904;-66
2022/01/22 00:32:26;;;;;;;;;;;5.00;63.90;;;;;;5076484;28;19908;-66
2022/01/22 00:34:52;;;;;;;;;;;5.00;63.90;;;;;;5058645;28;20327;-65
2022/01/22 00:37:17;;;;;;;;;;;5.00;63.90;;;;;;5076511;28;19904;-67
2022/01/22 00:39:43;;;;;;;;;;;4.90;63.90;;;;;;5076530;28;19905;-66
2022/01/22 00:42:13;;;;;;;;;;;4.90;64.00;;;;;;5076351;28;20230;-67
2022/01/22 00:44:39;;;;;;;;;;;5.00;64.10;;;;;;5058427;28;19958;-67
2022/01/22 00:47:05;;;;;;;;;;;4.90;64.90;;;;;;5058356;28;19931;-67
2022/01/22 00:49:33;;;;;;;;;;;5.00;64.20;;;;;;5091492;28;19904;-68
2022/01/22 00:51:58;;;;;;;;;;;5.00;64.20;;;;;;5091782;28;19905;-68
2022/01/22 00:54:24;;;;;;;;;;;5.00;64.30;;;;;;5076151;28;19909;-67
2022/01/22 00:56:50;;;;;;;;;;;4.90;64.20;;;;;;5075919;28;19911;-67
2022/01/22 00:59:16;;;;;;;;;;;4.90;64.40;;;;;;5075833;28;19905;-68
2022/01/22 01:01:42;;;;;;;;;;;4.90;64.40;;;;;;5076108;28;19921;-68
2022/01/22 01:04:10;;;;;;;;;;;4.90;64.60;;;;;;5075597;28;20289;-67
2022/01/22 01:06:36;;;;;;;;;;;4.90;64.60;;;;;;5076285;28;19915;-68
2022/01/22 01:09:04;;;;;;;;;;;4.90;64.70;;;;;;5091626;28;20330;-68
2022/01/22 01:11:32;;;;;;;;;;;4.80;64.70;;;;;;5091232;28;19911;-69
2022/01/22 01:14:01;;;;;;;;;;;4.80;64.80;;;;;;5057691;28;20364;-68
2022/01/22 01:16:56;;;;;;;;;;;4.80;65.00;;;;;;5057473;28;19909;-68
2022/01/22 01:35:31;;;;;;;;;;;4.80;65.30;;;;;;5055416;28;19908;-69
2022/01/22 01:38:01;;;;;;;;;;;4.80;65.30;;;;;;5037519;28;19905;-68
2022/01/22 01:40:31;;;;;;;;;;;4.80;65.30;;;;;;5037472;28;19999;-68
2022/01/22 01:45:31;;;;;;;;;;;4.80;65.40;;;;;;5055366;28;19999;-68
2022/01/22 01:47:59;;;;;;;;;;;4.80;65.40;;;;;;5055210;28;19905;-68
2022/01/22 01:50:26;;;;;;;;;;;4.80;65.50;;;;;;5070643;28;20299;-69
2022/01/22 01:53:07;;;;;;;;;;;4.80;66.00;;;;;;5055154;28;19913;-68
2022/01/22 01:55:49;;;;;;;;;;;4.70;66.20;;;;;;5055162;28;19924;-69
2022/01/22 01:58:18;;;;;;;;;;;4.70;66.30;;;;;;5028928;28;19909;-68
2022/01/22 02:00:44;;;;;;;;;;;4.70;66.30;;;;;;5037114;28;19915;-68
2022/01/22 02:03:12;;;;;;;;;;;4.70;66.30;;;;;;5054593;28;19909;-68
2022/01/22 02:05:41;;;;;;;;;;;4.70;66.30;;;;;;5036925;28;20252;-68
2022/01/22 02:08:07;;;;;;;;;;;4.70;66.30;;;;;;5054696;28;19967;-68
2022/01/22 02:10:37;;;;;;;;;;;4.70;66.40;;;;;;5054567;28;19904;-69
2022/01/22 02:24:01;;;;;;;;;;;4.70;66.70;;;;;;5074588;28;19955;-68
2022/01/22 02:26:28;;;;;;;;;;;4.60;66.80;;;;;;5056452;28;19964;-69
2022/01/22 02:28:54;;;;;;;;;;;4.60;67.00;;;;;;5074382;28;20260;-68
2022/01/22 02:31:37;;;;;;;;;;;4.60;67.00;;;;;;5074034;28;19905;-69
2022/01/22 02:34:17;;;;;;;;;;;4.60;67.10;;;;;;5074362;28;19909;-69
2022/01/22 02:36:57;;;;;;;;;;;4.60;67.30;;;;;;5074393;28;19951;-70
2022/01/22 02:39:36;;;;;;;;;;;4.50;67.60;;;;;;5074667;28;19905;-69
2022/01/22 02:42:02;;;;;;;;;;;4.50;67.90;;;;;;5073956;28;19958;-69
2022/01/22 02:44:36;;;;;;;;;;;4.50;67.90;;;;;;5055995;28;19904;-68
2022/01/22 02:47:04;;;;;;;;;;;4.50;68.00;;;;;;5056276;28;20413;-69
2022/01/22 02:49:30;;;;;;;;;;;4.50;68.00;;;;;;5074077;28;19905;-69
2022/01/22 02:52:07;;;;;;;;;;;4.40;68.00;;;;;;5074084;28;19915;-70
2022/01/22 02:54:36;;;;;;;;;;;4.50;68.00;;;;;;5074094;28;20054;-68
2022/01/22 02:57:01;;;;;;;;;;;4.50;68.00;;;;;;5074116;28;19957;-68
2022/01/22 02:59:27;;;;;;;;;;;4.50;68.00;;;;;;5073681;28;20370;-68
2022/01/22 03:01:53;;;;;;;;;;;4.50;68.00;;;;;;5073681;28;19911;-67
2022/01/22 03:04:19;;;;;;;;;;;4.50;68.00;;;;;;5073908;28;19950;-68
2022/01/22 03:06:46;;;;;;;;;;;4.60;68.00;;;;;;5074279;28;19958;-68
2022/01/22 03:09:14;;;;;;;;;;;4.60;67.90;;;;;;5073383;28;19904;-68
2022/01/22 03:12:00;;;;;;;;;;;4.60;67.80;;;;;;5073841;28;19904;-67
2022/01/22 03:20:06;;;;;;;;;;;4.60;68.20;;;;;;5073261;28;20467;-68
2022/01/22 03:27:27;;;;;;;;;;;4.60;67.60;;;;;;5074841;28;19962;-68
2022/01/22 03:29:53;;;;;;;;;;;4.70;67.70;;;;;;5059905;28;19904;-68
2022/01/22 03:32:19;;;;;;;;;;;4.60;67.70;;;;;;5059701;28;19931;-68
2022/01/22 03:37:29;;;;;;;;;;;4.60;67.90;;;;;;5077822;28;19951;-68
2022/01/22 03:39:55;;;;;;;;;;;4.70;67.90;;;;;;5077263;28;19909;-70
2022/01/22 03:42:21;;;;;;;;;;;4.60;67.80;;;;;;5077696;28;20313;-68
2022/01/22 03:44:47;;;;;;;;;;;4.70;67.70;;;;;;5077582;28;19909;-68
2022/01/22 03:47:12;;;;;;;;;;;4.70;67.80;;;;;;5077627;28;19999;-67
2022/01/22 03:49:38;;;;;;;;;;;4.70;68.10;;;;;;5077521;28;20248;-68
2022/01/22 03:52:04;;;;;;;;;;;4.70;68.20;;;;;;5059108;28;19908;-68
2022/01/22 03:54:30;;;;;;;;;;;4.70;68.00;;;;;;5077381;28;19908;-68
2022/01/22 03:56:55;;;;;;;;;;;4.70;67.90;;;;;;5077104;28;19966;-69
2022/01/22 03:59:24;;;;;;;;;;;4.70;68.10;;;;;;5077322;28;19904;-69
2022/01/22 04:04:27;;;;;;;;;;;4.70;67.90;;;;;;5077537;28;19909;-69
2022/01/22 04:09:42;;;;;;;;;;;4.70;67.90;;;;;;5076953;28;19911;-69
2022/01/22 04:12:10;;;;;;;;;;;4.70;67.90;;;;;;5092653;28;20365;-70
2022/01/22 04:14:37;;;;;;;;;;;4.70;67.90;;;;;;5092694;28;19955;-68
2022/01/22 04:17:18;;;;;;;;;;;4.70;67.90;;;;;;5076951;28;20406;-68
2022/01/22 04:24:50;;;;;;;;;;;4.70;67.80;;;;;;5076708;28;19911;-68
2022/01/22 04:25:31;;;;;;;;;;;4.70;68.00;;;;;;5076717;28;19953;-67
2022/01/22 04:27:57;;;;;;;;;;;4.70;68.20;;;;;;5058866;28;19905;-68
2022/01/22 04:30:23;;;;;;;;;;;4.70;68.20;;;;;;5077040;28;20222;-67
2022/01/22 04:32:49;;;;;;;;;;;4.70;68.20;;;;;;5059014;28;19932;-67
2022/01/22 04:35:17;;;;;;;;;;;4.70;68.20;;;;;;5068447;28;19916;-67
2022/01/22 04:37:43;;;;;;;;;;;4.70;68.30;;;;;;5058618;28;19927;-69
2022/01/22 04:40:09;;;;;;;;;;;4.70;68.30;;;;;;5075376;28;20357;-69
2022/01/22 04:42:37;;;;;;;;;;;4.70;68.30;;;;;;5092060;28;19908;-68
2022/01/22 04:45:15;;;;;;;;;;;4.80;68.20;;;;;;5076216;28;19904;-68
2022/01/22 04:47:53;;;;;;;;;;;4.80;68.20;;;;;;5076248;28;20362;-69
2022/01/22 04:55:38;;;;;;;;;;;4.80;68.10;;;;;;5076411;28;20348;-69
2022/01/22 04:58:04;;;;;;;;;;;4.80;68.00;;;;;;5076456;28;19999;-69
2022/01/22 05:00:33;;;;;;;;;;;4.80;68.00;;;;;;5058318;28;19904;-70
2022/01/22 05:03:00;;;;;;;;;;;4.80;67.80;;;;;;5091787;28;19909;-69
2022/01/22 05:05:25;;;;;;;;;;;4.90;67.90;;;;;;5091615;28;19908;-69
2022/01/22 05:07:52;;;;;;;;;;;4.90;67.90;;;;;;5076078;28;20360;-69
2022/01/22 05:10:18;;;;;;;;;;;4.90;67.90;;;;;;5075979;28;19992;-70
2022/01/22 05:12:44;;;;;;;;;;;4.90;67.80;;;;;;5057862;28;19951;-70
2022/01/22 05:15:14;;;;;;;;;;;4.90;67.80;;;;;;5075910;28;19955;-70
2022/01/22 05:17:42;;;;;;;;;;;5.00;67.80;;;;;;5057808;28;19911;-70
2022/01/22 05:20:26;;;;;;;;;;;4.90;67.70;;;;;;5075914;28;19928;-72
2022/01/22 05:26:00;;;;;;;;;;;4.90;67.70;;;;;;5061756;28;19904;-70
2022/01/22 05:31:00;;;;;;;;;;;5.00;67.80;;;;;;5075549;28;19911;-70
2022/01/22 05:36:55;;;;;;;;;;;5.00;67.80;;;;;;5057530;28;20010;-69
2022/01/22 05:38:58;;;;;;;;;;;4.90;67.80;;;;;;5075241;28;20327;-70
2022/01/22 05:41:23;;;;;;;;;;;5.00;68.00;;;;;;5075402;28;19947;-69
2022/01/22 05:43:49;;;;;;;;;;;5.00;68.00;;;;;;5074930;28;19912;-69
2022/01/22 05:46:15;;;;;;;;;;;5.00;68.10;;;;;;5075032;28;19908;-69
2022/01/22 05:48:40;;;;;;;;;;;4.90;68.00;;;;;;5074973;28;19905;-69
2022/01/22 05:51:07;;;;;;;;;;;4.90;68.10;;;;;;5075443;28;19955;-69
2022/01/22 06:01:45;;;;;;;;;;;5.00;68.70;;;;;;5074744;28;19951;-69
2022/01/22 06:04:10;;;;;;;;;;;5.00;68.70;;;;;;5074795;28;19944;-70
2022/01/22 06:06:36;;;;;;;;;;;5.00;68.70;;;;;;5074843;28;19905;-70
2022/01/22 06:09:07;;;;;;;;;;;5.00;68.60;;;;;;5074742;28;19904;-70
2022/01/22 06:11:40;;;;;;;;;;;5.00;68.50;;;;;;5056783;28;20349;-69
2022/01/22 06:14:06;;;;;;;;;;;5.00;68.40;;;;;;5074727;28;19948;-69
2022/01/22 06:16:31;;;;;;;;;;;5.00;68.40;;;;;;5074433;28;19955;-69
2022/01/22 06:18:57;;;;;;;;;;;5.00;68.40;;;;;;5074491;28;19920;-71
2022/01/22 06:21:25;;;;;;;;;;;5.00;68.50;;;;;;5056538;28;20363;-69
2022/01/22 06:23:51;;;;;;;;;;;5.00;68.50;;;;;;5056612;28;20008;-69
2022/01/22 06:26:17;;;;;;;;;;;5.10;68.50;;;;;;5056161;28;19940;-69
2022/01/22 06:28:43;;;;;;;;;;;5.10;68.60;;;;;;5056526;28;19911;-69
2022/01/22 06:31:08;;;;;;;;;;;5.10;68.60;;;;;;5074392;28;19912;-69
2022/01/22 06:33:34;;;;;;;;;;;5.10;68.60;;;;;;5074317;28;19955;-69
2022/01/22 06:36:00;;;;;;;;;;;5.10;68.70;;;;;;5074607;28;20201;-69
2022/01/22 06:38:26;;;;;;;;;;;5.10;68.70;;;;;;5074268;28;20249;-69
2022/01/22 06:43:39;;;;;;;;;;;5.10;68.90;;;;;;5073893;28;20259;-69
2022/01/22 06:46:05;;;;;;;;;;;5.10;68.90;;;;;;5074206;28;19908;-69
2022/01/22 06:48:30;;;;;;;;;;;5.10;69.00;;;;;;5074142;28;19908;-69
2022/01/22 06:50:58;;;;;;;;;;;5.20;69.20;;;;;;5073790;28;19904;-69
2022/01/22 06:53:23;;;;;;;;;;;5.20;69.10;;;;;;5089395;28;20264;-69
2022/01/22 06:55:59;;;;;;;;;;;5.20;69.10;;;;;;5073993;28;19908;-69
2022/01/22 06:58:25;;;;;;;;;;;5.30;69.20;;;;;;5055958;28;19908;-69
2022/01/22 07:00:51;;;;;;;;;;;5.30;69.10;;;;;;5089480;28;19905;-69
2022/01/22 07:03:17;;;;;;;;;;;5.30;69.10;;;;;;5066667;28;19905;-69
2022/01/22 07:05:42;;;;;;;;;;;5.40;69.10;;;;;;5053686;28;20431;-70
2022/01/22 07:08:08;;;;;;;;;;;5.40;69.00;;;;;;5069168;28;19904;-68
2022/01/22 07:10:33;;;;;;;;;;;5.40;68.90;;;;;;5053843;28;19947;-69
2022/01/22 07:12:59;;;;;;;;;;;5.50;69.00;;;;;;5053346;28;19918;-68
2022/01/22 07:15:28;;;;;;;;;;;5.50;68.90;;;;;;5035907;28;20011;-68
2022/01/22 07:17:55;;;;;;;;;;;5.50;68.90;;;;;;5082664;28;19909;-68
2022/01/22 07:20:27;;;;;;;;;;;5.50;69.00;;;;;;5055685;28;20306;-68
2022/01/22 07:23:00;;;;;;;;;;;5.50;69.00;;;;;;5073518;28;19904;-70
2022/01/22 07:25:29;;;;;;;;;;;5.50;69.00;;;;;;5073832;28;19905;-70
2022/01/22 07:27:55;;;;;;;;;;;5.60;69.10;;;;;;5073379;28;19960;-69
2022/01/22 07:30:20;;;;;;;;;;;5.60;69.00;;;;;;5055599;28;19955;-69
2022/01/22 07:32:46;;;;;;;;;;;5.60;69.00;;;;;;5073293;28;20348;-70
2022/01/22 07:35:13;;;;;;;;;;;5.60;69.00;;;;;;5073640;28;20363;-69
2022/01/22 07:37:39;;;;;;;;;;;5.70;69.10;;;;;;5073635;28;19904;-69
2022/01/22 07:40:06;;;;;;;;;;;5.70;69.00;;;;;;5073594;28;19908;-69
2022/01/22 07:42:34;;;;;;;;;;;5.70;69.00;;;;;;5069678;28;19927;-69
2022/01/22 07:45:01;;;;;;;;;;;5.80;69.00;;;;;;5093672;28;19911;-69
2022/01/22 07:47:26;;;;;;;;;;;5.80;69.30;;;;;;5075257;28;19983;-69
2022/01/22 07:49:52;;;;;;;;;;;5.90;69.50;;;;;;5093619;28;20322;-69
2022/01/22 07:52:18;;;;;;;;;;;5.90;69.50;;;;;;5075465;28;20420;-69
2022/01/22 07:54:44;;;;;;;;;;;5.90;69.50;;;;;;5075712;28;19908;-70
2022/01/22 07:57:10;;;;;;;;;;;5.90;69.50;;;;;;5075330;28;19908;-70
2022/01/22 07:59:36;;;;;;;;;;;5.80;69.40;;;;;;5093513;28;19904;-69
2022/01/22 08:02:02;;;;;;;;;;;5.90;69.50;;;;;;5093047;28;19904;-69
2022/01/22 08:04:29;;;;;;;;;;;5.90;69.50;;;;;;5093446;28;19908;-69
2022/01/22 08:06:57;;;;;;;;;;;5.90;69.40;;;;;;5075563;28;19908;-71
2022/01/22 08:09:23;;;;;;;;;;;5.90;69.40;;;;;;5093413;28;19950;-70
2022/01/22 08:11:49;;;;;;;;;;;5.90;69.40;;;;;;5093453;28;19908;-70
2022/01/22 08:14:15;;;;;;;;;;;5.90;69.30;;;;;;5093982;28;19915;-70
2022/01/22 08:16:40;;;;;;;;;;;6.00;69.30;;;;;;5078848;28;19984;-70
2022/01/22 08:19:06;;;;;;;;;;;6.00;69.30;;;;;;5078536;28;19932;-70
2022/01/22 08:21:32;;;;;;;;;;;6.00;69.30;;;;;;5078619;28;19904;-71
2022/01/22 08:23:57;;;;;;;;;;;6.00;69.20;;;;;;5097056;28;20464;-70
2022/01/22 08:26:28;;;;;;;;;;;6.10;69.30;;;;;;5078916;28;19904;-70
2022/01/22 08:28:53;;;;;;;;;;;6.10;69.20;;;;;;5078678;28;19912;-69
2022/01/22 08:31:27;;;;;;;;;;;6.10;69.30;;;;;;5096970;28;20078;-69
2022/01/22 08:36:37;;;;;;;;;;;6.20;69.40;;;;;;5097003;28;19915;-70
2022/01/22 08:39:04;;;;;;;;;;;6.20;69.40;;;;;;5097169;28;20285;-70
2022/01/22 08:41:29;;;;;;;;;;;6.30;69.40;;;;;;5078354;28;19948;-70
2022/01/22 08:43:57;;;;;;;;;;;6.30;69.20;;;;;;5096698;28;19977;-70
2022/01/22 08:46:24;;;;;;;;;;;6.30;69.10;;;;;;5096418;28;19904;-69
2022/01/22 08:48:53;;;;;;;;;;;6.30;69.20;;;;;;5078128;28;19904;-71
2022/01/22 08:51:22;;;;;;;;;;;6.40;69.30;;;;;;5078409;28;19953;-69
2022/01/22 08:53:48;;;;;;;;;;;6.40;69.40;;;;;;5096451;28;19912;-71
2022/01/22 08:56:14;;;;;;;;;;;6.40;69.40;;;;;;5078202;28;19915;-70
2022/01/22 08:58:40;;;;;;;;;;;6.50;69.40;;;;;;5096089;28;19911;-70
2022/01/22 09:01:07;;;;;;;;;;;6.50;69.40;;;;;;5096011;28;19904;-70
2022/01/22 09:03:32;;;;;;;;;;;6.60;69.40;;;;;;5078230;28;19904;-70
2022/01/22 09:05:59;;;;;;;;;;;6.60;69.30;;;;;;5096334;28;19911;-70
2022/01/22 09:08:25;;;;;;;;;;;6.60;69.30;;;;;;5096184;28;19991;-71
2022/01/22 09:10:52;;;;;;;;;;;6.60;69.20;;;;;;5095944;28;19911;-70
2022/01/22 09:13:18;;;;;;;;;;;6.60;69.20;;;;;;5096039;28;19908;-70
2022/01/22 09:15:44;;;;;;;;;;;6.70;69.30;;;;;;5096371;28;19969;-70
2022/01/22 09:18:10;;;;;;;;;;;6.70;69.20;;;;;;5077516;28;19912;-70
2022/01/22 09:23:10;;;;;;;;;;;6.70;69.30;;;;;;5095962;28;20352;-70
2022/01/22 09:25:35;;;;;;;;;;;6.70;69.30;;;;;;5077851;28;20251;-71
2022/01/22 09:28:02;;;;;;;;;;;6.80;69.30;;;;;;5095845;28;19911;-70
2022/01/22 09:30:27;;;;;;;;;;;6.80;69.30;;;;;;5077632;28;20411;-70
2022/01/22 09:32:53;;;;;;;;;;;6.80;69.30;;;;;;5077605;28;19943;-70
2022/01/22 09:35:19;;;;;;;;;;;6.80;69.40;;;;;;5095714;28;19991;-69
2022/01/22 09:37:45;;;;;;;;;;;6.90;69.40;;;;;;5095601;28;19947;-69
2022/01/22 09:40:12;;;;;;;;;;;6.90;69.40;;;;;;5077427;28;20414;-69
2022/01/22 09:42:39;;;;;;;;;;;6.90;69.40;;;;;;5077404;28;20339;-69
2022/01/22 09:45:05;;;;;;;;;;;7.00;69.30;;;;;;5095563;28;19934;-69
2022/01/22 09:47:31;;;;;;;;;;;7.00;69.20;;;;;;5095350;28;20338;-69
2022/01/22 09:49:57;;;;;;;;;;;7.00;69.20;;;;;;5077237;28;20255;-68
2022/01/22 09:52:23;;;;;;;;;;;7.00;69.10;;;;;;5077163;28;19904;-68
2022/01/22 09:54:48;;;;;;;;;;;7.00;68.90;;;;;;5077117;28;19961;-69
2022/01/22 09:57:14;;;;;;;;;;;7.00;68.90;;;;;;5095252;28;19991;-69
2022/01/22 09:59:40;;;;;;;;;;;7.00;68.80;;;;;;5095068;28;20269;-69
2022/01/22 10:02:07;;;;;;;;;;;7.00;68.90;;;;;;5094783;28;19904;-69
2022/01/22 10:04:36;;;;;;;;;;;7.00;68.90;;;;;;5095383;28;20333;-69
2022/01/22 10:07:05;;;;;;;;;;;7.10;68.90;;;;;;5077042;28;19911;-69
2022/01/22 10:09:46;;;;;;;;;;;7.10;68.90;;;;;;5076568;28;19930;-69
2022/01/22 10:12:20;;;;;;;;;;;7.10;68.70;;;;;;5094689;28;19904;-69
2022/01/22 10:15:04;;;;;;;;;;;7.00;68.60;;;;;;5094859;28;19912;-68
2022/01/22 10:17:40;;;;;;;;;;;7.10;68.70;;;;;;5094904;28;19908;-69
2022/01/22 10:20:21;;;;;;;;;;;7.10;68.80;;;;;;5094382;28;19927;-69
2022/01/22 10:22:49;;;;;;;;;;;7.10;68.90;;;;;;5076419;28;19904;-69
2022/01/22 10:25:24;;;;;;;;;;;7.20;68.80;;;;;;5076277;28;19915;-69
2022/01/22 10:27:56;;;;;;;;;;;7.10;68.50;;;;;;5094663;28;19987;-70
2022/01/22 10:30:22;;;;;;;;;;;7.10;68.40;;;;;;5076439;28;19904;-69
2022/01/22 10:33:04;;;;;;;;;;;7.10;68.40;;;;;;5076167;28;19969;-70
2022/01/22 10:35:31;;;;;;;;;;;7.10;68.30;;;;;;5076472;28;19950;-69
2022/01/22 10:37:57;;;;;;;;;;;7.20;68.40;;;;;;5075678;28;19911;-69
2022/01/22 10:40:30;;;;;;;;;;;7.20;68.50;;;;;;5094498;28;19904;-71
2022/01/22 10:43:20;;;;;;;;;;;7.20;68.50;;;;;;5094660;28;20279;-69
2022/01/22 10:46:19;;;;;;;;;;;7.30;68.60;;;;;;5094316;28;19904;-68
2022/01/22 10:48:56;;;;;;;;;;;7.30;68.60;;;;;;5072221;28;19908;-69
2022/01/22 10:51:22;;;;;;;;;;;7.30;68.30;;;;;;5076177;28;19904;-69
2022/01/22 10:53:58;;;;;;;;;;;7.40;68.30;;;;;;5093684;28;19908;-69
2022/01/22 10:56:25;;;;;;;;;;;7.40;68.40;;;;;;5094302;28;19908;-69
2022/01/22 10:58:53;;;;;;;;;;;7.40;68.20;;;;;;5075859;28;20318;-69
2022/01/22 11:01:19;;;;;;;;;;;7.30;68.00;;;;;;5093814;28;19904;-68
2022/01/22 11:03:45;;;;;;;;;;;7.30;67.80;;;;;;5075508;28;19908;-69
2022/01/22 11:06:26;;;;;;;;;;;7.30;67.60;;;;;;5093990;28;19927;-68
2022/01/22 11:08:53;;;;;;;;;;;7.30;67.70;;;;;;5094006;28;19904;-68
2022/01/22 11:11:19;;;;;;;;;;;7.20;67.50;;;;;;5093677;28;20344;-68
2022/01/22 11:13:44;;;;;;;;;;;7.20;67.50;;;;;;5093810;28;19912;-69
2022/01/22 11:16:10;;;;;;;;;;;7.10;67.40;;;;;;5094014;28;19920;-69
2022/01/22 11:18:37;;;;;;;;;;;7.10;67.60;;;;;;5075453;28;19920;-70
2022/01/22 11:21:03;;;;;;;;;;;7.20;68.00;;;;;;5093914;28;19912;-69
2022/01/22 11:23:29;;;;;;;;;;;7.20;68.60;;;;;;5093562;28;19911;-69
2022/01/22 11:25:55;;;;;;;;;;;7.20;67.90;;;;;;5093861;28;19910;-69
2022/01/22 11:28:21;;;;;;;;;;;7.20;68.00;;;;;;5075750;28;19904;-69
2022/01/22 11:30:48;;;;;;;;;;;7.30;68.10;;;;;;5075318;28;19904;-69
2022/01/22 11:33:17;;;;;;;;;;;7.30;68.10;;;;;;5075503;28;19938;-69
2022/01/22 11:35:48;;;;;;;;;;;7.30;68.20;;;;;;5093711;28;19915;-70
2022/01/22 11:38:19;;;;;;;;;;;7.40;68.50;;;;;;5094047;28;19910;-69
2022/01/22 11:41:04;;;;;;;;;;;7.50;68.70;;;;;;5093503;28;19908;-69
2022/01/22 11:43:59;;;;;;;;;;;7.60;68.70;;;;;;5075469;28;19911;-71
2022/01/22 11:46:45;;;;;;;;;;;7.60;68.50;;;;;;5075639;28;19912;-71
2022/01/22 11:49:11;;;;;;;;;;;7.70;68.50;;;;;;5077810;28;19911;-70
2022/01/22 11:51:37;;;;;;;;;;;7.70;68.60;;;;;;5079813;28;20332;-69
2022/01/22 11:54:03;;;;;;;;;;;7.80;68.60;;;;;;5097247;28;19908;-68
2022/01/22 11:56:30;;;;;;;;;;;7.80;68.40;;;;;;5097576;28;19969;-68
2022/01/22 11:58:56;;;;;;;;;;;7.90;68.40;;;;;;5097596;28;19905;-68
2022/01/22 12:01:39;;;;;;;;;;;8.00;68.40;;;;;;5097189;28;19911;-69
2022/01/22 12:04:06;;;;;;;;;;;8.00;68.20;;;;;;5097473;28;19920;-69
2022/01/22 12:06:32;;;;;;;;;;;8.10;68.20;;;;;;5079273;28;20282;-70
2022/01/22 12:09:13;;;;;;;;;;;8.10;68.20;;;;;;5097412;28;19910;-69
2022/01/22 12:14:43;;;;;;;;;;;8.30;68.10;;;;;;5096937;28;19979;-70
2022/01/22 12:17:14;;;;;;;;;;;8.30;68.00;;;;;;5097339;28;19912;-71
2022/01/22 12:19:51;;;;;;;;;;;8.40;67.80;;;;;;5078535;28;20031;-69
2022/01/22 12:22:29;;;;;;;;;;;8.40;67.60;;;;;;5096915;28;19998;-69
2022/01/22 12:24:54;;;;;;;;;;;8.40;67.50;;;;;;5097098;28;19969;-70
2022/01/22 12:27:40;;;;;;;;;;;8.40;67.30;;;;;;5095966;28;20509;-69
2022/01/22 12:30:06;;;;;;;;;;;8.40;67.10;;;;;;5096871;28;19999;-68
2022/01/22 12:32:42;;;;;;;;;;;8.40;66.90;;;;;;5096784;28;19944;-69
2022/01/22 12:35:09;;;;;;;;;;;8.30;66.70;;;;;;5096919;28;20225;-70
2022/01/22 12:37:41;;;;;;;;;;;8.30;66.80;;;;;;5096894;28;19908;-70
2022/01/22 12:40:07;;;;;;;;;;;8.30;66.80;;;;;;5078487;28;19904;-70
2022/01/22 12:42:53;;;;;;;;;;;8.30;66.50;;;;;;5096472;28;20438;-69
2022/01/22 12:45:21;;;;;;;;;;;8.20;66.10;;;;;;5078489;28;19904;-68
2022/01/22 12:47:48;;;;;;;;;;;8.10;66.00;;;;;;5096385;28;19904;-69
2022/01/22 12:50:14;;;;;;;;;;;8.10;66.00;;;;;;5078505;28;19904;-68
2022/01/22 12:52:48;;;;;;;;;;;8.10;66.10;;;;;;5078585;28;19910;-69
2022/01/22 12:55:17;;;;;;;;;;;8.00;66.10;;;;;;5078262;28;19915;-70
2022/01/22 12:57:43;;;;;;;;;;;8.00;66.20;;;;;;5078219;28;20344;-69
2022/01/22 13:00:15;;;;;;;;;;;7.90;66.10;;;;;;5077494;28;19908;-70
2022/01/22 13:02:54;;;;;;;;;;;7.90;66.10;;;;;;5078302;28;20193;-69
2022/01/22 13:05:20;;;;;;;;;;;7.90;66.10;;;;;;5096321;28;19952;-69
2022/01/22 13:07:57;;;;;;;;;;;7.80;66.00;;;;;;5096207;28;20049;-68
2022/01/22 13:10:26;;;;;;;;;;;7.80;66.10;;;;;;5078085;28;19949;-69
2022/01/22 13:12:53;;;;;;;;;;;7.80;66.00;;;;;;5077885;28;19954;-69
2022/01/22 13:15:19;;;;;;;;;;;7.70;65.90;;;;;;5096253;28;20160;-69
2022/01/22 13:17:51;;;;;;;;;;;7.60;65.90;;;;;;5096224;28;19934;-69
2022/01/22 13:20:22;;;;;;;;;;;7.60;66.00;;;;;;5077463;28;20372;-69
2022/01/22 13:22:48;;;;;;;;;;;7.60;66.10;;;;;;5095956;28;19908;-69
2022/01/22 13:25:15;;;;;;;;;;;7.50;66.20;;;;;;5096075;28;19911;-69
2022/01/22 13:27:41;;;;;;;;;;;7.50;66.20;;;;;;5077755;28;19904;-69
2022/01/22 13:30:13;;;;;;;;;;;7.50;66.30;;;;;;5077667;28;19904;-69
2022/01/22 13:49:05;;;;;;;;;;;7.20;66.30;;;;;;5095489;28;19954;-69
2022/01/22 13:51:32;;;;;;;;;;;7.10;66.40;;;;;;5095065;28;19956;-72
2022/01/22 13:53:58;;;;;;;;;;;7.10;66.50;;;;;;5077012;28;19915;-69
2022/01/22 13:56:47;;;;;;;;;;;7.10;66.60;;;;;;5095018;28;19908;-69
2022/01/22 13:59:18;;;;;;;;;;;7.00;66.70;;;;;;5077017;28;19904;-69
2022/01/22 14:04:20;;;;;;;;;;;7.00;66.70;;;;;;5094878;28;19904;-69
2022/01/22 14:06:46;;;;;;;;;;;7.00;66.80;;;;;;5095164;28;19911;-69
2022/01/22 14:09:13;;;;;;;;;;;6.90;66.70;;;;;;5094981;28;19990;-69
2022/01/22 14:11:58;;;;;;;;;;;6.90;66.70;;;;;;5076037;28;19994;-70
2022/01/22 14:14:25;;;;;;;;;;;6.90;66.80;;;;;;5094478;28;20053;-69
2022/01/22 14:17:13;;;;;;;;;;;6.90;67.00;;;;;;5095045;28;19908;-70
2022/01/22 14:19:39;;;;;;;;;;;6.90;67.10;;;;;;5094442;28;19927;-69
2022/01/22 14:22:08;;;;;;;;;;;6.80;67.00;;;;;;5076637;28;19911;-69
2022/01/22 14:24:33;;;;;;;;;;;6.80;67.20;;;;;;5094450;28;20336;-69
2022/01/22 14:26:59;;;;;;;;;;;6.80;67.30;;;;;;5076753;28;19911;-69
2022/01/22 14:29:24;;;;;;;;;;;6.80;67.40;;;;;;5094608;28;19908;-69
2022/01/22 14:31:51;;;;;;;;;;;6.80;67.50;;;;;;5094682;28;19904;-69
2022/01/22 14:34:42;;;;;;;;;;;6.80;67.50;;;;;;5076362;28;19908;-68
2022/01/22 14:37:08;;;;;;;;;;;6.80;67.50;;;;;;5076551;28;19966;-69
2022/01/22 14:45:27;;;;;;;;;;;6.80;67.50;;;;;;5094195;28;19954;-70
2022/01/22 14:47:54;;;;;;;;;;;6.80;67.60;;;;;;5076188;28;20339;-70
2022/01/22 14:50:20;;;;;;;;;;;6.80;67.50;;;;;;5076116;28;19991;-69
2022/01/22 14:52:49;;;;;;;;;;;6.80;67.50;;;;;;5093840;28;19921;-70
2022/01/22 14:55:15;;;;;;;;;;;6.80;67.60;;;;;;5076043;28;19912;-70
2022/01/22 14:57:42;;;;;;;;;;;6.80;67.60;;;;;;5094407;28;19911;-70
2022/01/22 15:00:09;;;;;;;;;;;6.80;67.70;;;;;;5076084;28;19904;-71
2022/01/22 15:02:36;;;;;;;;;;;6.80;67.60;;;;;;5076055;28;19908;-70
2022/01/22 15:05:02;;;;;;;;;;;6.70;67.60;;;;;;5093761;28;19910;-71
2022/01/22 15:07:31;;;;;;;;;;;6.70;67.70;;;;;;5094199;28;19904;-70
2022/01/22 15:09:57;;;;;;;;;;;6.80;67.70;;;;;;5075904;28;19904;-69
2022/01/22 15:12:22;;;;;;;;;;;6.70;67.70;;;;;;5094137;28;19912;-69
2022/01/22 15:14:52;;;;;;;;;;;6.70;67.70;;;;;;5075933;28;19908;-69
2022/01/22 15:19:51;;;;;;;;;;;6.70;67.80;;;;;;5093919;28;20259;-70
2022/01/22 15:22:17;;;;;;;;;;;6.70;67.90;;;;;;5075804;28;19954;-70
2022/01/22 15:24:44;;;;;;;;;;;6.70;68.00;;;;;;5075530;28;19911;-71
2022/01/22 15:27:12;;;;;;;;;;;6.70;68.10;;;;;;5075730;28;19908;-70
2022/01/22 15:32:38;;;;;;;;;;;6.80;68.20;;;;;;5093912;28;19911;-70
2022/01/22 15:35:06;;;;;;;;;;;6.80;68.20;;;;;;5075836;28;19951;-70
2022/01/22 15:37:32;;;;;;;;;;;6.80;68.20;;;;;;5093890;28;19959;-70
2022/01/22 15:39:58;;;;;;;;;;;6.80;68.20;;;;;;5093803;28;20260;-70
2022/01/22 15:42:23;;;;;;;;;;;6.80;68.20;;;;;;5093760;28;19904;-69
2022/01/22 15:44:49;;;;;;;;;;;6.80;68.20;;;;;;5075549;28;20329;-71
2022/01/22 15:47:19;;;;;;;;;;;6.80;68.10;;;;;;5094040;28;19914;-69
2022/01/22 15:49:50;;;;;;;;;;;6.80;68.10;;;;;;5075171;28;19915;-69
2022/01/22 15:52:16;;;;;;;;;;;6.80;68.20;;;;;;5073866;28;20328;-70
2022/01/22 15:54:43;;;;;;;;;;;6.80;68.10;;;;;;5073382;28;19916;-70
2022/01/22 15:57:10;;;;;;;;;;;6.80;68.10;;;;;;5073143;28;20406;-70
2022/01/22 15:59:35;;;;;;;;;;;6.80;68.10;;;;;;5073417;28;20027;-70
2022/01/22 16:02:01;;;;;;;;;;;6.70;68.10;;;;;;5072968;28;20383;-70
2022/01/22 16:04:26;;;;;;;;;;;6.80;68.20;;;;;;5073635;28;19947;-70
2022/01/22 16:09:21;;;;;;;;;;;6.80;68.10;;;;;;5073320;28;19904;-70
2022/01/22 16:11:47;;;;;;;;;;;6.80;68.10;;;;;;5073280;28;19995;-70
2022/01/22 16:14:16;;;;;;;;;;;6.80;68.20;;;;;;5073199;28;20002;-70
2022/01/22 16:16:43;;;;;;;;;;;6.80;68.30;;;;;;5073300;28;19952;-70
2022/01/22 16:19:12;;;;;;;;;;;6.80;68.30;;;;;;5072808;28;19927;-70
2022/01/22 16:21:42;;;;;;;;;;;6.80;68.30;;;;;;5088805;28;20352;-70
2022/01/22 16:24:08;;;;;;;;;;;6.80;68.30;;;;;;5073160;28;19905;-70
2022/01/22 16:26:34;;;;;;;;;;;6.80;68.20;;;;;;5073199;28;20013;-70
2022/01/22 16:29:00;;;;;;;;;;;6.80;68.20;;;;;;5088598;28;19918;-69
2022/01/22 16:31:28;;;;;;;;;;;6.80;68.20;;;;;;5072703;28;19904;-71
2022/01/22 16:33:54;;;;;;;;;;;6.80;68.20;;;;;;5072808;28;19916;-70
2022/01/22 16:36:19;;;;;;;;;;;6.80;68.30;;;;;;5075357;28;19909;-69
2022/01/22 16:38:45;;;;;;;;;;;6.80;68.20;;;;;;5076662;28;19904;-69